createdAt,value
2017-08-17T00:02:06.644Z,99.90
2017-08-17T00:04:35.476Z,99.90
2017-08-17T00:07:14.571Z,99.90
2017-08-17T00:09:53.741Z,99.90
2017-08-17T00:12:23.380Z,99.90
2017-08-17T00:14:52.618Z,99.90
2017-08-17T00:17:21.591Z,99.90
2017-08-17T00:19:50.489Z,99.90
2017-08-17T00:22:19.329Z,99.90
2017-08-17T00:24:48.207Z,99.90
2017-08-17T00:27:17.219Z,99.90
2017-08-17T00:29:47.029Z,99.90
2017-08-17T00:32:15.917Z,99.90
2017-08-17T00:34:44.810Z,99.90
2017-08-17T00:37:13.781Z,99.90
2017-08-17T00:39:42.644Z,99.90
2017-08-17T00:42:11.554Z,99.90
2017-08-17T00:44:40.438Z,99.90
2017-08-17T00:47:09.428Z,99.90
2017-08-17T00:49:38.395Z,99.90
2017-08-17T00:52:07.316Z,99.90
2017-08-17T00:54:36.185Z,99.90
2017-08-17T00:57:05.069Z,99.90
2017-08-17T00:59:33.965Z,99.90
2017-08-17T01:02:03.858Z,99.90
2017-08-17T01:04:32.752Z,99.90
2017-08-17T01:07:01.750Z,99.90
2017-08-17T01:09:30.657Z,99.90
2017-08-17T01:11:59.526Z,99.90
2017-08-17T01:14:28.466Z,99.90
2017-08-17T01:16:57.406Z,99.90
2017-08-17T01:19:26.342Z,99.90
2017-08-17T01:21:55.301Z,99.90
2017-08-17T01:24:24.279Z,99.90
2017-08-17T01:26:53.198Z,99.90
2017-08-17T01:32:16.214Z,99.90
2017-08-17T01:34:45.285Z,99.90
2017-08-17T01:37:14.414Z,99.90
2017-08-17T01:39:43.574Z,99.90
2017-08-17T01:42:12.782Z,99.90
2017-08-17T01:44:41.845Z,99.90
2017-08-17T01:47:19.650Z,99.90
2017-08-17T01:49:48.763Z,99.90
2017-08-17T01:52:18.033Z,99.90
2017-08-17T01:54:47.309Z,99.90
2017-08-17T01:57:16.453Z,99.90
2017-08-17T01:59:45.648Z,99.90
2017-08-17T02:02:14.731Z,99.90
2017-08-17T02:04:43.793Z,99.90
2017-08-17T02:07:12.969Z,99.90
2017-08-17T02:09:42.030Z,99.90
2017-08-17T02:12:11.131Z,99.90
2017-08-17T02:14:40.174Z,99.90
2017-08-17T02:17:09.188Z,99.90
2017-08-17T02:19:38.233Z,99.90
2017-08-17T02:22:07.319Z,99.90
2017-08-17T02:24:36.370Z,99.90
2017-08-17T02:27:05.403Z,99.90
2017-08-17T02:29:34.407Z,99.90
2017-08-17T02:32:03.408Z,99.90
2017-08-17T02:34:32.844Z,99.90
2017-08-17T02:37:01.872Z,99.90
2017-08-17T02:39:30.889Z,99.90
2017-08-17T02:42:00.104Z,99.90
2017-08-17T02:44:29.186Z,99.90
2017-08-17T02:47:02.712Z,99.90
2017-08-17T02:49:31.750Z,99.90
2017-08-17T02:52:00.849Z,99.90
2017-08-17T02:54:29.888Z,99.90
2017-08-17T02:56:58.932Z,99.90
2017-08-17T02:59:27.958Z,99.90
2017-08-17T03:01:56.978Z,99.90
2017-08-17T03:04:26.017Z,99.90
2017-08-17T03:06:55.026Z,99.90
2017-08-17T03:09:24.186Z,99.90
2017-08-17T03:11:53.188Z,99.90
2017-08-17T03:14:22.256Z,99.90
2017-08-17T03:16:52.266Z,99.90
2017-08-17T03:19:21.276Z,99.90
2017-08-17T03:21:50.279Z,99.90
2017-08-17T03:24:19.330Z,99.90
2017-08-17T03:26:48.383Z,99.90
2017-08-17T03:29:17.410Z,99.90
2017-08-17T03:31:46.676Z,99.90
2017-08-17T03:34:16.014Z,99.90
2017-08-17T03:36:45.017Z,99.90
2017-08-17T03:39:13.994Z,99.90
2017-08-17T03:41:43.006Z,99.90
2017-08-17T03:44:12.154Z,99.90
2017-08-17T03:46:44.090Z,99.90
2017-08-17T03:49:13.214Z,99.90
2017-08-17T03:51:42.990Z,99.90
2017-08-17T03:54:12.343Z,99.90
2017-08-17T03:56:41.942Z,99.90
2017-08-17T03:59:10.953Z,99.90
2017-08-17T04:01:39.993Z,99.90
2017-08-17T04:04:09.090Z,99.90
2017-08-17T04:06:38.154Z,99.90
2017-08-17T04:09:07.149Z,99.90
2017-08-17T04:11:36.191Z,99.90
2017-08-17T04:14:05.185Z,99.90
2017-08-17T04:16:34.200Z,99.90
2017-08-17T04:19:03.866Z,99.90
2017-08-17T04:21:33.017Z,99.90
2017-08-17T04:24:02.049Z,99.90
2017-08-17T04:26:31.088Z,99.90
2017-08-17T04:29:00.170Z,99.90
2017-08-17T04:31:29.265Z,99.90
2017-08-17T04:33:58.377Z,99.90
2017-08-17T04:36:28.459Z,99.90
2017-08-17T04:38:57.454Z,99.90
2017-08-17T04:41:26.977Z,99.90
2017-08-17T04:43:56.685Z,99.90
2017-08-17T04:46:26.301Z,99.90
2017-08-17T04:48:55.453Z,99.90
2017-08-17T04:51:24.916Z,99.90
2017-08-17T04:53:54.206Z,99.90
2017-08-17T04:56:39.367Z,99.90
2017-08-17T04:59:08.606Z,99.90
2017-08-17T05:01:38.010Z,99.90
2017-08-17T05:04:07.053Z,99.90
2017-08-17T05:06:36.085Z,99.90
2017-08-17T05:09:05.802Z,99.90
2017-08-17T05:11:34.804Z,99.90
2017-08-17T05:14:03.964Z,99.90
2017-08-17T05:16:32.982Z,99.90
2017-08-17T05:19:02.127Z,99.90
2017-08-17T05:21:31.473Z,99.90
2017-08-17T05:24:01.078Z,99.90
2017-08-17T05:26:30.142Z,99.90
2017-08-17T05:28:59.333Z,99.90
2017-08-17T05:31:28.475Z,99.90
2017-08-17T05:33:57.764Z,99.90
2017-08-17T05:36:28.042Z,99.90
2017-08-17T05:38:57.179Z,99.90
2017-08-17T05:41:27.100Z,99.90
2017-08-17T05:43:56.182Z,99.90
2017-08-17T05:46:25.360Z,99.90
2017-08-17T05:48:54.384Z,99.90
2017-08-17T05:51:23.477Z,99.90
2017-08-17T05:53:52.557Z,99.90
2017-08-17T05:56:21.650Z,99.90
2017-08-17T05:58:50.657Z,99.90
2017-08-17T06:01:19.733Z,99.90
2017-08-17T06:03:48.804Z,99.90
2017-08-17T06:06:17.855Z,99.90
2017-08-17T06:08:50.141Z,99.90
2017-08-17T06:11:19.266Z,99.90
2017-08-17T06:13:48.332Z,99.90
2017-08-17T06:16:17.434Z,99.90
2017-08-17T06:18:46.435Z,99.90
2017-08-17T06:21:45.978Z,99.90
2017-08-17T06:24:14.976Z,99.90
2017-08-17T06:26:43.991Z,99.90
2017-08-17T06:29:13.083Z,99.90
2017-08-17T06:31:42.105Z,99.90
2017-08-17T06:34:11.113Z,99.90
2017-08-17T06:36:40.152Z,99.90
2017-08-17T06:39:09.339Z,99.90
2017-08-17T06:41:42.055Z,99.90
2017-08-17T06:44:11.149Z,99.90
2017-08-17T06:46:40.302Z,99.90
2017-08-17T06:49:09.424Z,99.90
2017-08-17T06:51:38.625Z,99.90
2017-08-17T06:54:07.710Z,99.90
2017-08-17T06:56:36.817Z,99.90
2017-08-17T06:59:05.837Z,99.90
2017-08-17T07:01:35.261Z,99.90
2017-08-17T07:04:04.408Z,99.90
2017-08-17T07:06:33.978Z,99.90
2017-08-17T07:09:03.062Z,99.90
2017-08-17T07:11:32.155Z,99.90
2017-08-17T07:14:01.281Z,99.90
2017-08-17T07:16:30.322Z,99.90
2017-08-17T07:18:59.408Z,99.90
2017-08-17T07:21:28.573Z,99.90
2017-08-17T07:23:57.639Z,99.90
2017-08-17T07:26:26.702Z,99.90
2017-08-17T07:28:55.754Z,99.90
2017-08-17T07:31:24.878Z,99.90
2017-08-17T07:33:53.972Z,99.90
2017-08-17T07:36:25.994Z,99.90
2017-08-17T07:38:55.094Z,99.90
2017-08-17T07:41:24.352Z,99.90
2017-08-17T07:43:53.510Z,99.90
2017-08-17T07:46:28.051Z,99.90
2017-08-17T07:48:57.323Z,99.90
2017-08-17T07:51:26.372Z,99.90
2017-08-17T07:53:55.609Z,99.90
2017-08-17T07:56:24.714Z,99.90
2017-08-17T07:58:53.786Z,99.90
2017-08-17T08:01:23.033Z,99.90
2017-08-17T08:03:52.118Z,99.90
2017-08-17T08:06:21.190Z,99.90
2017-08-17T08:08:50.250Z,99.90
2017-08-17T08:11:19.447Z,99.90
2017-08-17T08:13:48.598Z,99.90
2017-08-17T08:16:27.015Z,99.90
2017-08-17T08:18:56.070Z,99.90
2017-08-17T08:21:25.175Z,99.90
2017-08-17T08:23:54.483Z,99.90
2017-08-17T08:26:23.582Z,99.90
2017-08-17T08:28:52.693Z,99.90
2017-08-17T08:31:21.805Z,99.90
2017-08-17T08:33:50.879Z,99.90
2017-08-17T08:36:19.976Z,99.90
2017-08-17T08:38:49.576Z,98.90
2017-08-17T08:41:18.779Z,96.60
2017-08-17T08:43:47.869Z,95.00
2017-08-17T08:46:16.965Z,94.80
2017-08-17T08:48:46.026Z,94.80
2017-08-17T08:51:15.120Z,92.80
2017-08-17T08:53:44.282Z,90.90
2017-08-17T08:56:13.567Z,91.00
2017-08-17T08:58:45.233Z,90.30
2017-08-17T09:01:14.471Z,89.20
2017-08-17T09:03:43.728Z,91.40
2017-08-17T09:06:12.980Z,92.90
2017-08-17T09:08:42.210Z,91.40
2017-08-17T09:11:11.502Z,91.70
2017-08-17T09:13:41.873Z,91.10
2017-08-17T09:16:19.870Z,90.80
2017-08-17T09:18:49.428Z,86.60
2017-08-17T09:21:19.346Z,82.30
2017-08-17T09:23:48.853Z,88.80
2017-08-17T09:26:18.260Z,86.40
2017-08-17T09:28:47.976Z,89.10
2017-08-17T09:31:26.641Z,85.90
2017-08-17T09:33:56.108Z,84.90
2017-08-17T09:36:25.416Z,87.50
2017-08-17T09:38:54.720Z,90.30
2017-08-17T09:41:24.524Z,90.90
2017-08-17T09:43:53.886Z,90.30
2017-08-17T09:46:23.034Z,93.00
2017-08-17T09:48:52.112Z,91.00
2017-08-17T09:51:22.866Z,90.40
2017-08-17T09:53:52.089Z,90.40
2017-08-17T09:56:21.884Z,87.80
2017-08-17T09:58:51.116Z,88.80
2017-08-17T10:01:20.358Z,85.90
2017-08-17T10:03:49.749Z,87.90
2017-08-17T10:06:19.355Z,81.20
2017-08-17T10:08:48.634Z,83.50
2017-08-17T10:11:26.487Z,84.60
2017-08-17T10:13:55.731Z,89.70
2017-08-17T10:16:25.074Z,84.10
2017-08-17T10:18:54.324Z,85.70
2017-08-17T10:21:23.589Z,90.70
2017-08-17T10:23:52.848Z,92.10
2017-08-17T10:26:23.479Z,88.00
2017-08-17T10:28:54.345Z,91.50
2017-08-17T10:31:26.610Z,93.10
2017-08-17T10:33:55.862Z,93.10
2017-08-17T10:36:25.092Z,92.70
2017-08-17T10:38:54.371Z,92.70
2017-08-17T10:41:23.798Z,92.80
2017-08-17T10:43:53.001Z,94.20
2017-08-17T10:46:24.527Z,94.10
2017-08-17T10:48:53.710Z,92.30
2017-08-17T10:51:22.912Z,94.00
2017-08-17T10:53:52.035Z,94.10
2017-08-17T10:56:21.860Z,92.20
2017-08-17T10:58:52.647Z,93.20
2017-08-17T11:01:22.078Z,89.70
2017-08-17T11:03:52.506Z,92.00
2017-08-17T11:06:21.740Z,92.70
2017-08-17T11:08:51.067Z,94.40
2017-08-17T11:11:24.463Z,94.50
2017-08-17T11:13:53.774Z,94.00
2017-08-17T11:16:32.874Z,91.50
2017-08-17T11:19:02.898Z,89.80
2017-08-17T11:21:32.144Z,89.80
2017-08-17T11:24:01.576Z,91.40
2017-08-17T11:26:31.031Z,92.80
2017-08-17T11:29:00.574Z,91.80
2017-08-17T11:31:29.961Z,90.80
2017-08-17T11:33:59.765Z,89.60
2017-08-17T11:36:29.094Z,89.50
2017-08-17T11:38:58.427Z,90.80
2017-08-17T11:41:28.235Z,91.70
2017-08-17T11:43:57.880Z,88.30
2017-08-17T11:46:27.176Z,91.40
2017-08-17T11:48:56.491Z,91.40
2017-08-17T11:51:26.079Z,92.10
2017-08-17T11:53:55.397Z,93.40
2017-08-17T11:56:24.780Z,92.80
2017-08-17T11:58:54.125Z,95.00
2017-08-17T12:01:23.320Z,94.40
2017-08-17T12:03:52.807Z,94.80
2017-08-17T12:06:22.019Z,95.70
2017-08-17T12:08:51.362Z,96.40
2017-08-17T12:11:20.607Z,95.70
2017-08-17T12:13:54.156Z,94.50
2017-08-17T12:16:24.342Z,93.90
2017-08-17T12:18:54.124Z,94.60
2017-08-17T12:21:23.384Z,94.60
2017-08-17T12:23:52.576Z,94.30
2017-08-17T12:26:21.817Z,95.60
2017-08-17T12:28:51.084Z,94.90
2017-08-17T12:31:20.366Z,95.10
2017-08-17T12:33:49.707Z,96.20
2017-08-17T12:36:19.205Z,96.50
2017-08-17T12:38:48.519Z,96.10
2017-08-17T12:41:18.452Z,96.70
2017-08-17T12:43:47.650Z,97.20
2017-08-17T12:46:16.944Z,97.90
2017-08-17T12:48:46.169Z,97.80
2017-08-17T12:51:15.463Z,99.10
2017-08-17T12:53:44.695Z,98.00
2017-08-17T12:56:14.172Z,99.90
2017-08-17T12:58:43.441Z,99.90
2017-08-17T13:01:13.159Z,99.90
2017-08-17T13:03:42.414Z,99.90
2017-08-17T13:06:11.756Z,99.90
2017-08-17T13:08:41.194Z,99.90
2017-08-17T13:11:10.802Z,99.90
2017-08-17T13:13:40.727Z,99.90
2017-08-17T13:16:10.193Z,99.90
2017-08-17T13:18:39.492Z,99.90
2017-08-17T13:21:09.093Z,99.90
2017-08-17T13:23:38.719Z,99.90
2017-08-17T13:26:08.065Z,99.90
2017-08-17T13:28:37.343Z,99.90
2017-08-17T13:31:06.640Z,99.90
2017-08-17T13:33:36.060Z,99.90
2017-08-17T13:36:05.320Z,99.90
2017-08-17T13:38:34.722Z,99.90
2017-08-17T13:41:04.082Z,99.90
2017-08-17T13:43:34.839Z,99.90
2017-08-17T13:46:04.356Z,99.90
2017-08-17T13:48:33.669Z,99.90
2017-08-17T13:51:03.844Z,99.90
2017-08-17T13:53:33.078Z,99.90
2017-08-17T13:56:03.265Z,99.90
2017-08-17T13:58:32.667Z,99.90
2017-08-17T14:01:02.071Z,99.90
2017-08-17T14:03:32.326Z,99.90
2017-08-17T14:06:02.034Z,99.90
2017-08-17T14:08:31.786Z,99.90
2017-08-17T14:11:01.245Z,99.90
2017-08-17T14:13:30.881Z,99.90
2017-08-17T14:16:00.225Z,99.90
2017-08-17T14:18:30.859Z,99.90
2017-08-17T14:21:00.180Z,99.90
2017-08-17T14:23:30.063Z,99.90
2017-08-17T14:25:59.417Z,99.90
2017-08-17T14:28:28.811Z,99.90
2017-08-17T14:30:58.382Z,99.90
2017-08-17T14:33:27.901Z,99.90
2017-08-17T14:35:57.207Z,99.90
2017-08-17T14:38:27.486Z,99.90
2017-08-17T14:40:56.873Z,99.90
2017-08-17T14:43:26.092Z,99.90
2017-08-17T14:45:55.456Z,99.90
2017-08-17T14:48:24.895Z,99.90
2017-08-17T14:50:54.530Z,99.90
2017-08-17T14:53:23.861Z,99.90
2017-08-17T14:55:53.069Z,99.90
2017-08-17T14:58:30.905Z,99.90
2017-08-17T15:01:00.878Z,99.90
2017-08-17T15:03:30.291Z,99.90
2017-08-17T15:05:59.684Z,99.90
2017-08-17T15:08:29.330Z,99.90
2017-08-17T15:10:58.813Z,99.90
2017-08-17T15:13:28.239Z,99.90
2017-08-17T15:15:57.729Z,99.90
2017-08-17T15:18:27.142Z,99.90
2017-08-17T15:20:56.366Z,99.90
2017-08-17T15:23:25.660Z,99.90
2017-08-17T15:25:54.972Z,99.90
2017-08-17T15:28:25.559Z,99.90
2017-08-17T15:30:55.954Z,99.90
2017-08-17T15:33:26.631Z,99.90
2017-08-17T15:35:55.870Z,99.90
2017-08-17T15:38:25.880Z,99.90
2017-08-17T15:40:55.229Z,99.90
2017-08-17T15:43:24.536Z,99.90
2017-08-17T15:45:54.178Z,99.90
2017-08-17T15:48:23.419Z,99.90
2017-08-17T15:50:52.678Z,99.90
2017-08-17T15:53:21.926Z,99.90
2017-08-17T15:55:51.634Z,99.90
2017-08-17T15:58:21.519Z,99.90
2017-08-17T16:00:50.908Z,99.90
2017-08-17T16:03:20.253Z,99.90
2017-08-17T16:05:50.030Z,99.90
2017-08-17T16:08:19.427Z,99.90
2017-08-17T16:10:48.893Z,99.90
2017-08-17T16:13:18.328Z,99.90
2017-08-17T16:15:47.633Z,99.90
2017-08-17T16:18:17.028Z,99.90
2017-08-17T16:20:46.481Z,99.90
2017-08-17T16:23:16.199Z,99.90
2017-08-17T16:25:45.592Z,99.90
2017-08-17T16:28:15.099Z,99.90
2017-08-17T16:30:45.422Z,99.90
2017-08-17T16:33:21.708Z,99.90
2017-08-17T16:35:54.880Z,99.90
2017-08-17T16:38:28.446Z,99.90
2017-08-17T16:41:00.353Z,99.90
2017-08-17T16:43:29.936Z,99.90
2017-08-17T16:45:59.573Z,99.90
2017-08-17T16:48:28.991Z,99.90
2017-08-17T16:50:58.541Z,99.90
2017-08-17T16:53:28.808Z,99.90
2017-08-17T16:55:58.102Z,99.90
2017-08-17T16:58:27.559Z,99.90
2017-08-17T17:00:56.820Z,99.90
2017-08-17T17:03:30.130Z,99.90
2017-08-17T17:06:02.198Z,99.90
2017-08-17T17:08:31.678Z,99.90
2017-08-17T17:11:01.267Z,99.90
2017-08-17T17:13:30.914Z,99.90
2017-08-17T17:16:00.415Z,99.90
2017-08-17T17:18:31.006Z,99.90
2017-08-17T17:21:01.851Z,99.90
2017-08-17T17:23:31.436Z,99.90
2017-08-17T17:26:02.340Z,99.90
2017-08-17T17:28:32.672Z,99.90
2017-08-17T17:31:02.466Z,99.90
2017-08-17T17:33:31.888Z,99.90
2017-08-17T17:36:01.546Z,99.90
2017-08-17T17:38:31.019Z,99.90
2017-08-17T17:41:00.389Z,99.90
2017-08-17T17:43:29.552Z,99.90
2017-08-17T17:45:58.792Z,99.90
2017-08-17T17:48:27.919Z,99.90
2017-08-17T17:50:57.114Z,99.90
2017-08-17T17:53:26.472Z,99.90
2017-08-17T17:55:55.853Z,99.90
2017-08-17T17:58:25.050Z,99.90
2017-08-17T18:00:54.482Z,99.90
2017-08-17T18:03:23.616Z,99.90
2017-08-17T18:05:53.080Z,99.90
2017-08-17T18:08:22.399Z,99.90
2017-08-17T18:10:55.975Z,99.90
2017-08-17T18:13:28.320Z,99.90
2017-08-17T18:15:57.966Z,99.90
2017-08-17T18:18:29.685Z,99.90
2017-08-17T18:20:59.117Z,99.90
2017-08-17T18:23:28.343Z,99.90
2017-08-17T18:25:58.805Z,99.90
2017-08-17T18:28:29.600Z,99.90
2017-08-17T18:30:59.055Z,99.90
2017-08-17T18:33:28.991Z,99.90
2017-08-17T18:35:58.144Z,99.90
2017-08-17T18:38:28.748Z,99.90
2017-08-17T18:40:58.011Z,99.90
2017-08-17T18:43:27.421Z,99.90
2017-08-17T18:45:58.695Z,99.90
2017-08-17T18:48:28.306Z,99.90
2017-08-17T18:51:03.639Z,99.90
2017-08-17T18:53:32.908Z,99.90
2017-08-17T18:56:03.529Z,99.90
2017-08-17T18:58:32.988Z,99.90
2017-08-17T19:01:03.862Z,99.90
2017-08-17T19:03:33.458Z,99.90
2017-08-17T19:06:05.703Z,99.90
2017-08-17T19:08:34.958Z,99.90
2017-08-17T19:11:04.924Z,99.90
2017-08-17T19:13:35.272Z,99.90
2017-08-17T19:16:04.729Z,99.90
2017-08-17T19:18:34.134Z,99.90
2017-08-17T19:21:04.952Z,99.90
2017-08-17T19:23:34.297Z,99.90
2017-08-17T19:26:06.307Z,99.90
2017-08-17T19:28:36.926Z,99.90
2017-08-17T19:31:07.551Z,99.90
2017-08-17T19:33:37.598Z,99.90
2017-08-17T19:36:07.223Z,99.90
2017-08-17T19:38:36.657Z,99.90
2017-08-17T19:41:06.838Z,99.90
2017-08-17T19:43:36.199Z,99.90
2017-08-17T19:46:05.667Z,99.90
2017-08-17T19:48:35.938Z,99.90
2017-08-17T19:51:06.183Z,99.90
2017-08-17T19:53:35.485Z,99.90
2017-08-17T19:56:05.024Z,99.90
2017-08-17T19:58:34.294Z,99.90
2017-08-17T20:01:04.724Z,99.90
2017-08-17T20:03:37.558Z,99.90
2017-08-17T20:06:07.559Z,99.90
2017-08-17T20:08:37.356Z,99.90
2017-08-17T20:11:07.763Z,99.90
2017-08-17T20:13:37.240Z,99.90
2017-08-17T20:16:06.898Z,99.90
2017-08-17T20:18:36.063Z,99.90
2017-08-17T20:21:06.110Z,99.90
2017-08-17T20:23:36.028Z,99.90
2017-08-17T20:26:05.282Z,99.90
2017-08-17T20:28:34.519Z,99.90
2017-08-17T20:31:04.850Z,99.90
2017-08-17T20:33:34.133Z,99.90
2017-08-17T20:36:04.266Z,99.90
2017-08-17T20:38:33.428Z,99.90
2017-08-17T20:41:03.165Z,99.90
2017-08-17T20:43:33.356Z,99.90
2017-08-17T20:46:03.888Z,99.90
2017-08-17T20:48:34.364Z,99.90
2017-08-17T20:51:04.507Z,99.90
2017-08-17T20:53:33.774Z,99.90
2017-08-17T20:56:04.760Z,99.90
2017-08-17T20:58:33.982Z,99.90
2017-08-17T21:01:03.976Z,99.90
2017-08-17T21:03:33.251Z,99.90
2017-08-17T21:06:09.475Z,99.90
2017-08-17T21:08:39.882Z,99.90
2017-08-17T21:11:12.435Z,99.90
2017-08-17T21:13:42.927Z,99.90
2017-08-17T21:16:12.228Z,99.90
2017-08-17T21:18:42.334Z,99.90
2017-08-17T21:21:13.938Z,99.90
2017-08-17T21:23:43.057Z,99.90
2017-08-17T21:26:13.217Z,99.90
2017-08-17T21:28:43.020Z,99.90
2017-08-17T21:31:13.019Z,99.90
2017-08-17T21:33:43.269Z,99.90
2017-08-17T21:36:13.504Z,99.90
2017-08-17T21:38:42.835Z,99.90
2017-08-17T21:41:12.792Z,99.90
2017-08-17T21:43:42.462Z,99.90
2017-08-17T21:46:11.938Z,99.90
2017-08-17T21:48:41.265Z,99.90
2017-08-17T21:51:11.383Z,99.90
2017-08-17T21:53:41.146Z,99.90
2017-08-17T21:56:10.480Z,99.90
2017-08-17T21:58:40.260Z,99.90
2017-08-17T22:01:09.610Z,99.90
2017-08-17T22:03:38.764Z,99.90
2017-08-17T22:06:08.079Z,99.90
2017-08-17T22:08:38.622Z,99.90
2017-08-17T22:11:07.721Z,99.90
2017-08-17T22:13:37.440Z,99.90
2017-08-17T22:16:07.606Z,99.90
2017-08-17T22:18:36.726Z,99.90
2017-08-17T22:21:05.762Z,99.90
2017-08-17T22:23:35.030Z,99.90
2017-08-17T22:26:06.620Z,99.90
2017-08-17T22:28:35.794Z,99.90
2017-08-17T22:31:05.345Z,99.90
2017-08-17T22:33:34.614Z,99.90
2017-08-17T22:36:05.231Z,99.90
2017-08-17T22:38:34.398Z,99.90
2017-08-17T22:41:04.562Z,99.90
2017-08-17T22:43:34.170Z,99.90
2017-08-17T22:46:04.234Z,99.90
2017-08-17T22:48:34.186Z,99.90
2017-08-17T22:51:04.417Z,99.90
2017-08-17T22:53:33.887Z,99.90
2017-08-17T22:56:05.045Z,99.90
2017-08-17T22:58:35.225Z,99.90
2017-08-17T23:01:06.371Z,99.90
2017-08-17T23:03:35.538Z,99.90
2017-08-17T23:06:07.225Z,99.90
2017-08-17T23:08:37.479Z,99.90
2017-08-17T23:11:07.148Z,99.90
2017-08-17T23:13:36.873Z,99.90
2017-08-17T23:16:06.274Z,99.90
2017-08-17T23:18:35.621Z,99.90
2017-08-17T23:21:05.950Z,99.90
2017-08-17T23:23:35.444Z,99.90
2017-08-17T23:26:06.051Z,99.90
2017-08-17T23:28:35.344Z,99.90
2017-08-17T23:31:06.686Z,99.90
2017-08-17T23:33:36.005Z,99.90
2017-08-17T23:36:06.914Z,99.90
2017-08-17T23:38:36.774Z,99.90
2017-08-17T23:41:06.197Z,99.90
2017-08-17T23:43:35.347Z,99.90
2017-08-17T23:46:05.460Z,99.90
2017-08-17T23:48:34.683Z,99.90
2017-08-17T23:51:04.935Z,99.90
2017-08-17T23:53:34.248Z,99.90
2017-08-17T23:56:05.707Z,99.90
2017-08-17T23:58:34.896Z,99.90
